Terminal Aerodrome Forecast
Issued by NWS

Home | Current Version | Previous Version | Text Only | Print | Product List | Glossary On
Versions: 1 2 3 4 5 6 7 8 9 10 11 12 13 14 15 16 17 18 19 20 21 22 23 24 25 26
000
FTUS46 KMFR 011147
TAFOTH
TAF
KOTH 011147Z 0112/0212 20008KT P6SM BKN100
     FM011400 16007KT P6SM VCSH BKN040 OVC060
     FM011600 16007KT P6SM -SHRA SCT025 BKN035 OVC050
     FM011900 18010KT 5SM -SHRA BR SCT020 OVC030
     FM012100 20010KT 5SM -SHRA BR BKN020 OVC050=

USA.gov is the U.S. government's official web portal to all federal, state and local government web resources and services.